Time;durP1;ratioP1;P1;durP2;ratioP2;P2;SDS_P1;SDS_P2;PMS_P1;PMS_P2;Temp;Humidity;BMP_temperature;BMP_pressure;BME280_temperature;BME280_humidity;BME280_pressure;Samples;Min_cycle;Max_cycle;Signal;HPM_P1;HPM_P2
2022/11/13 00:00:31;;;;;;;;;;;;;;;13.64;54.10;100373.47;4981413;28;19976;-75
2022/11/13 00:02:57;;;;;;;;;;;;;;;13.66;54.24;100378.63;4979758;28;20313;-75
2022/11/13 00:05:22;;;;;;;;;;;;;;;13.65;54.04;100375.16;4981390;28;19937;-75
2022/11/13 00:07:47;;;;;;;;;;;;;;;13.66;54.43;100378.63;4997359;28;19917;-76
2022/11/13 00:10:12;;;;;;;;;;;;;;;13.65;54.16;100376.94;4991139;28;19922;-75
2022/11/13 00:12:38;;;;;;;;;;;;;;;13.65;54.22;100374.31;4981250;28;19925;-75
2022/11/13 00:15:03;;;;;;;;;;;;;;;13.66;54.36;100376.00;4996938;28;20042;-75
2022/11/13 00:17:29;;;;;;;;;;;;;;;13.65;54.11;100372.53;4966858;28;19918;-75
2022/11/13 00:19:54;;;;;;;;;;;;;;;13.65;54.30;100371.69;4990982;28;19924;-76
2022/11/13 00:22:19;;;;;;;;;;;;;;;13.64;54.53;100370.00;4981774;28;19918;-72
2022/11/13 00:24:45;;;;;;;;;;;;;;;13.64;54.26;100370.00;4981860;28;20401;-74
2022/11/13 00:27:10;;;;;;;;;;;;;;;13.63;54.46;100368.31;4984264;28;20325;-74
2022/11/13 00:29:35;;;;;;;;;;;;;;;13.61;54.41;100368.41;4984754;28;19918;-74
2022/11/13 00:32:01;;;;;;;;;;;;;;;13.61;54.62;100371.03;5000157;28;19953;-74
2022/11/13 00:34:26;;;;;;;;;;;;;;;13.60;54.72;100369.38;4994483;28;19948;-74
2022/11/13 00:36:51;;;;;;;;;;;;;;;13.59;54.48;100362.41;4981987;28;20500;-74
2022/11/13 00:39:17;;;;;;;;;;;;;;;13.57;54.64;100367.75;4998984;28;19922;-75
2022/11/13 00:41:42;;;;;;;;;;;;;;;13.59;54.43;100366.84;4968403;28;19976;-75
2022/11/13 00:44:07;;;;;;;;;;;;;;;13.57;54.63;100367.75;4993872;28;19918;-75
2022/11/13 00:46:33;;;;;;;;;;;;;;;13.57;54.70;100367.75;4976836;28;19922;-75
2022/11/13 00:48:58;;;;;;;;;;;;;;;13.57;54.42;100365.13;4985277;28;19930;-74
2022/11/13 00:51:23;;;;;;;;;;;;;;;13.57;54.87;100364.31;4985129;28;19922;-75
2022/11/13 00:53:48;;;;;;;;;;;;;;;13.56;54.74;100363.44;4984990;28;20471;-75
2022/11/13 00:56:14;;;;;;;;;;;;;;;13.55;55.01;100367.03;4994215;28;19925;-76
2022/11/13 00:58:39;;;;;;;;;;;;;;;13.53;54.85;100363.63;4967667;28;20452;-75
2022/11/13 01:01:05;;;;;;;;;;;;;;;13.54;55.09;100360.09;4993115;28;19918;-75
2022/11/13 01:03:31;;;;;;;;;;;;;;;13.54;54.94;100361.88;4993935;28;19926;-76
2022/11/13 01:05:56;;;;;;;;;;;;;;;13.52;55.05;100359.34;4968359;28;19976;-75
2022/11/13 01:08:21;;;;;;;;;;;;;;;13.52;55.25;100361.97;4984495;28;19918;-77
2022/11/13 01:10:47;;;;;;;;;;;;;;;13.52;55.21;100356.72;4993723;28;19933;-75
2022/11/13 01:13:12;;;;;;;;;;;;;;;13.52;55.10;100361.97;4984983;28;20382;-75
2022/11/13 01:15:38;;;;;;;;;;;;;;;13.50;55.13;100358.59;4984598;28;20005;-75
2022/11/13 01:18:04;;;;;;;;;;;;;;;13.52;55.29;100358.47;4984331;28;19929;-76
2022/11/13 01:20:29;;;;;;;;;;;;;;;13.52;55.29;100355.84;4968165;28;19918;-75
2022/11/13 01:22:54;;;;;;;;;;;;;;;13.51;55.19;100362.91;4975894;28;19945;-75
2022/11/13 01:25:20;;;;;;;;;;;;;;;13.50;55.25;100358.59;4967884;28;19925;-75
2022/11/13 01:27:45;;;;;;;;;;;;;;;13.51;55.20;100356.81;4984360;28;19961;-75
2022/11/13 01:30:10;;;;;;;;;;;;;;;13.51;55.19;100362.06;4986684;28;20415;-75
2022/11/13 01:32:36;;;;;;;;;;;;;;;13.50;55.29;100358.59;4983579;28;19922;-75
2022/11/13 01:35:01;;;;;;;;;;;;;;;13.51;55.33;100360.28;4982551;28;20279;-74
2022/11/13 01:37:26;;;;;;;;;;;;;;;13.50;55.05;100353.34;4975225;28;20383;-76
2022/11/13 01:39:52;;;;;;;;;;;;;;;13.50;54.95;100361.19;4975226;28;20385;-74
2022/11/13 01:42:17;;;;;;;;;;;;;;;13.49;55.32;100356.06;4975385;28;19941;-75
2022/11/13 01:44:46;;;;;;;;;;;;;;;13.49;55.24;100359.53;4983516;28;20405;-75
2022/11/13 01:47:12;;;;;;;;;;;;;;;13.47;55.51;100358.81;4997820;28;19926;-76
2022/11/13 01:49:37;;;;;;;;;;;;;;;13.47;55.48;100366.66;4967189;28;19921;-74
2022/11/13 01:52:03;;;;;;;;;;;;;;;13.47;55.59;100361.44;4983719;28;19922;-76
2022/11/13 01:54:30;;;;;;;;;;;;;;;13.47;55.39;100371.06;4967568;28;19918;-74
2022/11/13 01:56:56;;;;;;;;;;;;;;;13.48;55.28;100357.00;4975148;28;19922;-75
2022/11/13 01:59:22;;;;;;;;;;;;;;;13.47;55.39;100356.19;4967075;28;19973;-74
2022/11/13 02:01:47;;;;;;;;;;;;;;;13.47;55.43;100355.31;4983570;28;19926;-75
2022/11/13 02:04:13;;;;;;;;;;;;;;;13.47;55.67;100358.81;4983014;28;19922;-75
2022/11/13 02:06:42;;;;;;;;;;;;;;;13.48;55.57;100354.38;4997577;28;19950;-74
2022/11/13 02:09:08;;;;;;;;;;;;;;;13.48;55.64;100354.38;4966798;28;19933;-76
2022/11/13 02:11:33;;;;;;;;;;;;;;;13.48;55.67;100352.59;4983675;28;19937;-75
2022/11/13 02:13:59;;;;;;;;;;;;;;;13.48;55.59;100349.97;4966909;28;19929;-74
2022/11/13 02:16:24;;;;;;;;;;;;;;;13.50;55.56;100349.88;4983414;28;19922;-76
2022/11/13 02:18:49;;;;;;;;;;;;;;;13.50;55.51;100355.97;4983467;28;19922;-76
2022/11/13 02:21:44;;;;;;;;;;;;;;;13.50;55.60;100349.88;4982564;28;19981;-77
2022/11/13 02:24:12;;;;;;;;;;;;;;;13.49;55.72;100356.91;4932293;29;20401;-77
2022/11/13 02:26:37;;;;;;;;;;;;;;;13.51;55.55;100351.56;4932375;29;20420;-76
2022/11/13 02:29:02;;;;;;;;;;;;;;;13.50;55.70;100353.34;4916515;29;19919;-76
2022/11/13 02:31:28;;;;;;;;;;;;;;;13.51;55.63;100352.41;4916194;29;19919;-73
2022/11/13 02:33:53;;;;;;;;;;;;;;;13.51;55.67;100349.78;4916521;29;19923;-73
2022/11/13 02:36:19;;;;;;;;;;;;;;;13.52;55.88;100355.84;4916414;29;19919;-73
2022/11/13 02:38:44;;;;;;;;;;;;;;;13.53;55.76;100350.53;4916062;29;19966;-78
2022/11/13 02:41:09;;;;;;;;;;;;;;;13.52;55.91;100346.22;4900311;29;20343;-77
2022/11/13 02:43:35;;;;;;;;;;;;;;;13.52;55.73;100343.59;4915883;29;20311;-77
2022/11/13 02:46:00;;;;;;;;;;;;;;;13.53;55.77;100347.91;4916231;29;20514;-77
2022/11/13 02:48:25;;;;;;;;;;;;;;;13.52;55.78;100351.47;4915675;29;19919;-74
2022/11/13 02:50:50;;;;;;;;;;;;;;;13.54;56.13;100354.00;4916268;29;20417;-74
2022/11/13 02:53:16;;;;;;;;;;;;;;;13.54;56.09;100354.84;4931605;29;19925;-74
2022/11/13 02:55:41;;;;;;;;;;;;;;;13.54;56.04;100348.75;4931878;29;19925;-73
2022/11/13 02:58:06;;;;;;;;;;;;;;;13.53;56.34;100353.16;4916237;29;19923;-74
2022/11/13 03:00:32;;;;;;;;;;;;;;;13.53;56.25;100353.16;4945513;28;20385;-74
2022/11/13 03:02:57;;;;;;;;;;;;;;;13.52;56.44;100359.34;4992005;28;20386;-74
2022/11/13 03:05:22;;;;;;;;;;;;;;;13.54;56.31;100357.47;4966217;28;19922;-74
2022/11/13 03:07:48;;;;;;;;;;;;;;;13.53;56.43;100360.19;4998123;28;19921;-75
2022/11/13 03:10:13;;;;;;;;;;;;;;;13.54;56.21;100352.22;4974088;28;19918;-74
2022/11/13 03:12:39;;;;;;;;;;;;;;;13.54;56.32;100352.22;4965765;28;19984;-74
2022/11/13 03:15:05;;;;;;;;;;;;;;;13.54;56.30;100343.50;4997744;28;20753;-74
2022/11/13 03:17:31;;;;;;;;;;;;;;;13.55;56.40;100347.81;4971569;28;20385;-74
2022/11/13 03:19:56;;;;;;;;;;;;;;;13.55;56.20;100351.28;4965888;28;19941;-74
2022/11/13 03:22:21;;;;;;;;;;;;;;;13.55;56.28;100342.56;4981006;28;20316;-74
2022/11/13 03:24:46;;;;;;;;;;;;;;;13.55;56.11;100346.03;4982075;28;19918;-74
2022/11/13 03:27:12;;;;;;;;;;;;;;;13.55;56.31;100342.56;4979574;28;19918;-74
2022/11/13 03:29:37;;;;;;;;;;;;;;;13.56;56.02;100342.47;4973920;28;19953;-75
2022/11/13 03:32:02;;;;;;;;;;;;;;;13.54;56.36;100341.72;4981892;28;19922;-74
2022/11/13 03:34:28;;;;;;;;;;;;;;;13.55;56.25;100343.41;4998218;28;20361;-76
2022/11/13 03:36:53;;;;;;;;;;;;;;;13.55;56.22;100345.19;4982536;28;19919;-77
2022/11/13 03:39:18;;;;;;;;;;;;;;;13.55;56.12;100345.19;4979074;28;19922;-76
2022/11/13 03:41:43;;;;;;;;;;;;;;;13.56;56.44;100345.06;4972263;28;19922;-75
2022/11/13 03:44:09;;;;;;;;;;;;;;;13.56;56.29;100350.31;4978716;28;19977;-75
2022/11/13 03:46:34;;;;;;;;;;;;;;;13.56;56.36;100345.06;4952043;28;19929;-75
2022/11/13 03:48:59;;;;;;;;;;;;;;;13.56;56.13;100344.25;4971154;28;19918;-75
2022/11/13 03:51:25;;;;;;;;;;;;;;;13.55;56.47;100340.78;4970986;28;19954;-75
2022/11/13 03:53:50;;;;;;;;;;;;;;;13.55;56.22;100346.03;4978983;28;20461;-75
2022/11/13 03:56:15;;;;;;;;;;;;;;;13.55;56.32;100337.31;4972373;28;19981;-77
2022/11/13 03:58:40;;;;;;;;;;;;;;;13.55;56.32;100329.44;4978565;28;19926;-76
2022/11/13 04:01:06;;;;;;;;;;;;;;;13.55;56.24;100332.91;4972436;28;20312;-77
2022/11/13 04:03:31;;;;;;;;;;;;;;;13.56;56.16;100337.22;4958734;28;19918;-77
2022/11/13 04:05:56;;;;;;;;;;;;;;;13.54;56.21;100325.97;4982488;28;19919;-77
2022/11/13 04:08:22;;;;;;;;;;;;;;;13.55;56.24;100330.28;4974551;28;20412;-77
2022/11/13 04:10:47;;;;;;;;;;;;;;;13.55;56.11;100329.44;4957934;28;19918;-77
2022/11/13 04:13:12;;;;;;;;;;;;;;;13.55;56.15;100330.28;4975688;28;19965;-76
2022/11/13 04:15:38;;;;;;;;;;;;;;;13.56;56.20;100329.34;4982158;28;20017;-77
2022/11/13 04:18:03;;;;;;;;;;;;;;;13.54;56.22;100331.22;4973305;28;20087;-77
2022/11/13 04:20:29;;;;;;;;;;;;;;;13.54;56.25;100325.97;4982560;28;20048;-76
2022/11/13 04:22:57;;;;;;;;;;;;;;;13.54;56.23;100325.97;4955562;28;19919;-75
2022/11/13 04:25:22;;;;;;;;;;;;;;;13.54;56.38;100322.53;4974483;28;19918;-77
2022/11/13 04:27:48;;;;;;;;;;;;;;;13.52;56.11;100320.00;4973660;28;20464;-74
2022/11/13 04:30:14;;;;;;;;;;;;;;;13.52;56.38;100324.38;4971639;28;19926;-74
2022/11/13 04:32:39;;;;;;;;;;;;;;;13.51;56.30;100323.53;4974295;28;19928;-74
2022/11/13 04:35:05;;;;;;;;;;;;;;;13.50;56.62;100324.47;4982017;28;19950;-73
2022/11/13 04:37:30;;;;;;;;;;;;;;;13.50;56.59;100321.84;4974979;28;19925;-74
2022/11/13 04:39:56;;;;;;;;;;;;;;;13.50;56.69;100321.84;4976079;28;19923;-75
2022/11/13 04:45:05;;;;;;;;;;;;;;;13.50;56.53;100328.88;4954968;29;20360;-75
2022/11/13 04:47:30;;;;;;;;;;;;;;;13.49;56.80;100330.69;4970507;28;19941;-74
2022/11/13 04:49:56;;;;;;;;;;;;;;;13.50;56.65;100342.00;4953657;29;19929;-76
2022/11/13 04:52:21;;;;;;;;;;;;;;;13.48;56.71;100339.47;4951551;29;20024;-74
2022/11/13 04:54:46;;;;;;;;;;;;;;;13.50;56.41;100337.59;4970638;28;20382;-75
2022/11/13 04:57:11;;;;;;;;;;;;;;;13.51;56.50;100341.09;4954194;29;19951;-72
2022/11/13 04:59:37;;;;;;;;;;;;;;;13.50;56.49;100340.22;4968029;28;20394;-75
2022/11/13 05:02:02;;;;;;;;;;;;;;;13.52;56.55;100340.97;4954269;29;20464;-74
2022/11/13 05:04:27;;;;;;;;;;;;;;;13.53;56.06;100341.81;4955345;28;20017;-77
2022/11/13 05:06:53;;;;;;;;;;;;;;;13.54;56.16;100338.25;4953913;29;19973;-75
2022/11/13 05:09:18;;;;;;;;;;;;;;;13.55;56.24;100347.81;4953230;29;19942;-74
2022/11/13 05:11:43;;;;;;;;;;;;;;;13.55;56.15;100350.41;4968231;28;20314;-74
2022/11/13 05:14:10;;;;;;;;;;;;;;;13.56;56.02;100350.31;4953767;29;20310;-77
2022/11/13 05:16:35;;;;;;;;;;;;;;;13.56;56.05;100355.56;4967618;28;20706;-75
2022/11/13 05:19:05;;;;;;;;;;;;;;;13.57;56.14;100351.19;4953857;29;19922;-74
2022/11/13 05:21:31;;;;;;;;;;;;;;;13.57;56.13;100346.78;4953763;29;19965;-73
2022/11/13 05:23:56;;;;;;;;;;;;;;;13.57;56.18;100351.19;4951494;29;20415;-74
2022/11/13 05:26:22;;;;;;;;;;;;;;;13.59;56.14;100345.84;4953689;29;20006;-74
2022/11/13 05:28:47;;;;;;;;;;;;;;;13.59;55.88;100351.94;4953365;29;20378;-75
2022/11/13 05:31:13;;;;;;;;;;;;;;;13.60;55.97;100350.13;4955187;28;19958;-74
2022/11/13 05:33:38;;;;;;;;;;;;;;;13.59;56.23;100356.34;4969530;28;19918;-77
2022/11/13 05:36:13;;;;;;;;;;;;;;;13.65;57.75;100363.84;4957157;28;19919;-76
2022/11/13 05:38:39;;;;;;;;;;;;;;;13.91;61.02;100359.53;4957905;28;19925;-74
2022/11/13 05:41:05;;;;;;;;;;;;;;;14.04;59.33;100362.19;4974740;28;19918;-75
2022/11/13 05:43:31;;;;;;;;;;;;;;;14.05;58.62;100356.00;4966048;28;20404;-75
2022/11/13 05:46:00;;;;;;;;;;;;;;;14.05;58.05;100358.63;4982569;28;19926;-76
2022/11/13 05:48:25;;;;;;;;;;;;;;;14.05;57.87;100367.34;4997764;28;20036;-74
2022/11/13 05:50:51;;;;;;;;;;;;;;;14.04;58.02;100363.06;4965472;28;19982;-87
2022/11/13 05:53:17;;;;;;;;;;;;;;;14.32;61.03;100365.66;4971948;28;20392;-81
2022/11/13 05:55:44;;;;;;;;;;;;;;;14.67;61.60;100373.00;4983524;28;20003;-79
2022/11/13 05:58:11;;;;;;;;;;;;;;;15.05;60.79;100365.13;4976862;28;19934;-79
2022/11/13 06:00:37;;;;;;;;;;;;;;;15.26;60.37;100378.59;4981412;28;19922;-74
2022/11/13 06:03:02;;;;;;;;;;;;;;;15.23;58.97;100370.91;4997097;28;20300;-72
2022/11/13 06:05:27;;;;;;;;;;;;;;;15.14;57.28;100375.00;4981390;28;19918;-76
2022/11/13 06:07:53;;;;;;;;;;;;;;;14.96;57.43;100384.16;4992032;28;19952;-74
2022/11/13 06:10:18;;;;;;;;;;;;;;;14.97;58.69;100375.34;4984801;28;19969;-76
2022/11/13 06:12:43;;;;;;;;;;;;;;;14.90;56.86;100382.81;4982557;28;19918;-78
2022/11/13 06:15:09;;;;;;;;;;;;;;;14.79;56.57;100382.69;4966122;28;19926;-77
2022/11/13 06:17:34;;;;;;;;;;;;;;;14.69;55.75;100382.47;4979549;28;19918;-76
2022/11/13 06:19:59;;;;;;;;;;;;;;;14.60;55.55;100381.31;4996066;28;19968;-77
2022/11/13 06:22:25;;;;;;;;;;;;;;;14.60;56.41;100385.72;4985144;28;19918;-75
2022/11/13 06:24:50;;;;;;;;;;;;;;;14.53;56.14;100385.25;4964082;28;19989;-73
2022/11/13 06:27:15;;;;;;;;;;;;;;;14.50;55.95;100384.59;4965894;28;19922;-72
2022/11/13 06:29:41;;;;;;;;;;;;;;;14.48;56.90;100393.44;4982034;28;19930;-70
2022/11/13 06:32:06;;;;;;;;;;;;;;;14.58;60.62;100393.69;4966500;28;19954;-74
2022/11/13 06:34:31;;;;;;;;;;;;;;;14.78;63.50;100388.88;4982326;28;19919;-75
2022/11/13 06:36:57;;;;;;;;;;;;;;;14.90;61.85;100388.06;4965253;28;20005;-74
2022/11/13 06:39:23;;;;;;;;;;;;;;;15.01;62.45;100384.72;4991660;28;20032;-73
2022/11/13 06:41:49;;;;;;;;;;;;;;;15.12;63.14;100390.06;4974173;28;19918;-72
2022/11/13 06:44:14;;;;;;;;;;;;;;;15.23;63.44;100378.81;4979551;28;19969;-73
2022/11/13 06:46:40;;;;;;;;;;;;;;;15.33;63.27;100385.09;4965172;28;20393;-73
2022/11/13 06:49:05;;;;;;;;;;;;;;;15.41;62.91;100381.09;4972072;28;19921;-73
2022/11/13 06:51:30;;;;;;;;;;;;;;;15.50;62.71;100380.44;4980875;28;19922;-74
2022/11/13 06:53:56;;;;;;;;;;;;;;;15.53;62.27;100382.88;4968239;28;19929;-73
2022/11/13 06:56:22;;;;;;;;;;;;;;;15.63;62.03;100383.88;4964568;28;19926;-75
2022/11/13 06:58:47;;;;;;;;;;;;;;;15.81;62.11;100378.28;4980147;28;19929;-75
2022/11/13 07:01:16;;;;;;;;;;;;;;;15.90;61.61;100380.25;4990821;28;19918;-76
2022/11/13 07:03:42;;;;;;;;;;;;;;;15.91;62.15;100380.13;4980941;28;20385;-73
2022/11/13 07:06:08;;;;;;;;;;;;;;;15.93;61.73;100382.66;4999063;28;20053;-69
2022/11/13 07:08:34;;;;;;;;;;;;;;;15.94;61.75;100384.34;4990999;28;20404;-70
2022/11/13 07:10:59;;;;;;;;;;;;;;;15.96;60.80;100379.81;4980898;28;19918;-69
2022/11/13 07:13:25;;;;;;;;;;;;;;;16.03;62.22;100375.75;4996216;28;19922;-70
2022/11/13 07:15:50;;;;;;;;;;;;;;;16.08;61.17;100380.69;4989803;28;20382;-72
2022/11/13 07:18:16;;;;;;;;;;;;;;;16.14;61.05;100388.16;4980846;28;20580;-69
2022/11/13 07:20:41;;;;;;;;;;;;;;;16.21;60.09;100384.13;4964207;28;20444;-71
2022/11/13 07:23:06;;;;;;;;;;;;;;;16.31;58.03;100375.53;4981104;28;20030;-72
2022/11/13 07:25:32;;;;;;;;;;;;;;;16.39;56.31;100375.81;4972370;28;19964;-76
2022/11/13 07:27:57;;;;;;;;;;;;;;;16.48;55.68;100375.13;4981560;28;19918;-76
2022/11/13 07:30:23;;;;;;;;;;;;;;;16.61;54.87;100367.13;4964759;28;19926;-79
2022/11/13 07:32:48;;;;;;;;;;;;;;;16.69;54.62;100380.56;4980515;28;20223;-73
2022/11/13 07:35:13;;;;;;;;;;;;;;;16.73;53.32;100373.25;4997751;28;19981;-72
2022/11/13 07:37:39;;;;;;;;;;;;;;;16.75;52.55;100372.19;4968436;28;19977;-76
2022/11/13 07:40:04;;;;;;;;;;;;;;;16.76;52.00;100362.47;4976061;28;19928;-73
2022/11/13 07:42:30;;;;;;;;;;;;;;;16.76;51.87;100365.97;4985660;28;19925;-73
2022/11/13 07:44:55;;;;;;;;;;;;;;;16.76;51.33;100365.13;4984638;28;19918;-71
2022/11/13 07:47:20;;;;;;;;;;;;;;;16.75;51.23;100361.66;4979309;28;19926;-72
2022/11/13 07:49:46;;;;;;;;;;;;;;;16.70;50.51;100361.16;4993947;28;19957;-72
2022/11/13 07:52:11;;;;;;;;;;;;;;;16.67;50.45;100358.75;4967893;28;19922;-71
2022/11/13 07:54:36;;;;;;;;;;;;;;;16.60;50.45;100366.31;4993874;28;19922;-72
2022/11/13 07:57:01;;;;;;;;;;;;;;;16.59;50.42;100355.88;4983986;28;19945;-70
2022/11/13 07:59:27;;;;;;;;;;;;;;;16.60;52.88;100357.53;4999507;28;20408;-76
2022/11/13 08:01:52;;;;;;;;;;;;;;;16.57;51.86;100365.66;4984092;28;20389;-72
2022/11/13 08:04:17;;;;;;;;;;;;;;;16.59;51.14;100364.63;4983828;28;20297;-73
2022/11/13 08:06:43;;;;;;;;;;;;;;;16.59;50.24;100356.69;4976198;28;19918;-74
2022/11/13 08:09:08;;;;;;;;;;;;;;;16.59;50.07;100355.88;4967580;28;19918;-83
2022/11/13 08:11:34;;;;;;;;;;;;;;;16.57;49.78;100355.13;5000535;28;19920;-76
2022/11/13 08:13:59;;;;;;;;;;;;;;;16.59;49.75;100359.34;4967327;28;19940;-78
2022/11/13 08:16:25;;;;;;;;;;;;;;;16.61;49.68;100361.84;4967014;28;19922;-79
2022/11/13 08:18:50;;;;;;;;;;;;;;;16.87;60.91;100361.69;4982801;28;20452;-77
2022/11/13 08:21:15;;;;;;;;;;;;;;;16.96;57.52;100361.81;4984387;28;19925;-77
2022/11/13 08:23:41;;;;;;;;;;;;;;;17.04;54.58;100361.22;4970570;28;19921;-83
2022/11/13 08:26:06;;;;;;;;;;;;;;;16.93;50.33;100359.41;4981507;28;19929;-80
2022/11/13 08:28:31;;;;;;;;;;;;;;;17.00;57.30;100363.28;4984095;28;19921;-75
2022/11/13 08:30:56;;;;;;;;;;;;;;;17.07;55.26;100360.16;4993249;28;19922;-72
2022/11/13 08:33:22;;;;;;;;;;;;;;;17.18;58.78;100361.00;4993696;28;20400;-72
2022/11/13 08:35:54;;;;;;;;;;;;;;;17.26;51.87;100359.56;4967250;28;19954;-73
2022/11/13 08:38:19;;;;;;;;;;;;;;;17.28;50.21;100357.63;4981077;28;19945;-78
2022/11/13 08:40:44;;;;;;;;;;;;;;;17.17;48.11;100354.06;4997979;28;19968;-73
2022/11/13 08:43:10;;;;;;;;;;;;;;;17.11;48.03;100354.53;4977095;28;20471;-77
2022/11/13 08:45:35;;;;;;;;;;;;;;;17.09;48.15;100351.16;4968278;28;19953;-75
2022/11/13 08:48:00;;;;;;;;;;;;;;;17.08;48.71;100353.91;4982502;28;19927;-77
2022/11/13 08:50:26;;;;;;;;;;;;;;;17.12;48.52;100353.56;4981983;28;20013;-76
2022/11/13 08:52:55;;;;;;;;;;;;;;;17.16;48.54;100349.72;4975345;28;19964;-87
2022/11/13 08:55:20;;;;;;;;;;;;;;;17.23;48.44;100354.53;4967585;28;20389;-78
2022/11/13 08:57:45;;;;;;;;;;;;;;;17.24;47.75;100348.31;4981938;28;19925;-73
2022/11/13 09:00:11;;;;;;;;;;;;;;;17.25;47.18;100348.19;4993553;28;20372;-77
2022/11/13 09:02:36;;;;;;;;;;;;;;;17.30;49.24;100350.44;4969039;28;20461;-71
2022/11/13 09:05:02;;;;;;;;;;;;;;;17.38;50.61;100347.19;4991525;28;20461;-70
2022/11/13 09:07:27;;;;;;;;;;;;;;;17.38;48.26;100340.13;4967146;28;19929;-71
2022/11/13 09:09:52;;;;;;;;;;;;;;;17.47;46.95;100341.19;4976785;28;20013;-77
2022/11/13 09:12:18;;;;;;;;;;;;;;;17.49;46.89;100332.19;4983690;28;19919;-81
2022/11/13 09:14:43;;;;;;;;;;;;;;;17.61;47.21;100332.16;4998192;28;20412;-78
2022/11/13 09:17:08;;;;;;;;;;;;;;;17.65;46.08;100331.78;4990048;28;20373;-77
2022/11/13 09:19:34;;;;;;;;;;;;;;;17.72;45.58;100327.69;4958518;28;19922;-76
2022/11/13 09:21:59;;;;;;;;;;;;;;;17.79;45.09;100321.91;4976334;28;20340;-81
2022/11/13 09:24:24;;;;;;;;;;;;;;;17.90;44.70;100328.03;4967338;28;19915;-79
2022/11/13 09:26:50;;;;;;;;;;;;;;;17.99;44.48;100322.94;4997650;28;19925;-75
2022/11/13 09:29:15;;;;;;;;;;;;;;;17.97;44.80;100322.25;4993006;28;19988;-77
2022/11/13 09:31:40;;;;;;;;;;;;;;;18.10;44.43;100325.53;4992520;28;19933;-76
2022/11/13 09:34:06;;;;;;;;;;;;;;;18.04;44.69;100320.75;4966158;28;19925;-76
2022/11/13 09:36:31;;;;;;;;;;;;;;;18.00;45.23;100317.53;4991476;28;19914;-76
2022/11/13 09:38:57;;;;;;;;;;;;;;;18.08;44.18;100322.19;4982857;28;21554;-75
2022/11/13 09:41:23;;;;;;;;;;;;;;;18.17;44.01;100318.78;4997052;28;19918;-79
2022/11/13 09:43:52;;;;;;;;;;;;;;;18.31;43.94;100308.88;4967810;28;20008;-83
2022/11/13 09:46:17;;;;;;;;;;;;;;;19.52;41.62;100301.06;4973746;28;19932;-81
2022/11/13 09:48:45;;;;;;;;;;;;;;;20.38;39.46;100300.44;4988851;28;19922;-83
2022/11/13 09:51:31;;;;;;;;;;;;;;;21.23;38.55;100296.94;5000535;28;19918;-84
2022/11/13 09:53:56;;;;;;;;;;;;;;;22.19;35.37;100293.75;4989504;28;20008;-82
2022/11/13 09:56:48;;;;;;;;;;;;;;;22.45;33.83;100285.81;4984378;28;20017;-83
2022/11/13 09:59:34;;;;;;;;;;;;;;;23.03;33.21;100278.13;4971150;28;19921;-83
2022/11/13 10:02:09;;;;;;;;;;;;;;;23.61;33.02;100274.66;4980938;28;20448;-71
2022/11/13 10:04:56;;;;;;;;;;;;;;;24.22;31.90;100278.88;4983213;28;20405;-76
2022/11/13 10:07:30;;;;;;;;;;;;;;;24.41;33.44;100272.34;4973323;28;19972;-73
2022/11/13 10:09:56;;;;;;;;;;;;;;;24.89;32.27;100270.53;4963624;28;19958;-77
2022/11/13 10:12:21;;;;;;;;;;;;;;;24.69;31.04;100264.81;4990724;28;20393;-78
2022/11/13 10:14:48;;;;;;;;;;;;;;;24.60;31.58;100260.47;4974927;28;19918;-76
2022/11/13 10:17:22;;;;;;;;;;;;;;;24.34;31.86;100259.69;4967346;28;19918;-77
2022/11/13 10:19:54;;;;;;;;;;;;;;;24.70;31.35;100264.63;4967379;28;19922;-74
2022/11/13 10:22:22;;;;;;;;;;;;;;;24.32;32.14;100252.81;4990125;28;20400;-74
2022/11/13 10:24:48;;;;;;;;;;;;;;;24.59;30.34;100253.47;4992532;28;19925;-75
2022/11/13 10:27:13;;;;;;;;;;;;;;;24.73;29.48;100248.25;4969623;28;19922;-74
2022/11/13 10:29:38;;;;;;;;;;;;;;;24.80;31.53;100244.91;4982721;28;19922;-75
2022/11/13 10:32:16;;;;;;;;;;;;;;;24.79;30.43;100236.03;4997693;28;19984;-75
2022/11/13 10:34:43;;;;;;;;;;;;;;;24.59;30.67;100243.66;4989931;28;20383;-73
2022/11/13 10:37:08;;;;;;;;;;;;;;;24.74;30.81;100239.22;4982945;28;19956;-74
2022/11/13 10:39:40;;;;;;;;;;;;;;;24.77;30.23;100231.91;4992700;28;20373;-81
2022/11/13 10:42:17;;;;;;;;;;;;;;;24.83;31.50;100233.88;4980563;28;20364;-75
2022/11/13 10:44:50;;;;;;;;;;;;;;;24.94;30.96;100220.13;4987569;28;19926;-74
2022/11/13 10:47:16;;;;;;;;;;;;;;;25.01;31.26;100223.75;4979952;28;19918;-77
2022/11/13 10:49:42;;;;;;;;;;;;;;;25.16;32.06;100223.00;4982315;28;19918;-76
2022/11/13 10:52:22;;;;;;;;;;;;;;;25.33;31.83;100218.44;4991623;28;19922;-76
2022/11/13 10:54:48;;;;;;;;;;;;;;;25.47;31.87;100217.66;4990251;28;19929;-78
2022/11/13 10:57:27;;;;;;;;;;;;;;;25.62;31.78;100212.38;4966130;28;20005;-77
2022/11/13 10:59:52;;;;;;;;;;;;;;;25.73;31.50;100203.94;4981323;28;20393;-79
2022/11/13 11:02:21;;;;;;;;;;;;;;;25.78;31.17;100206.06;4966231;28;19922;-77
2022/11/13 11:04:46;;;;;;;;;;;;;;;25.76;31.92;100189.34;4965405;28;19968;-80
2022/11/13 11:07:13;;;;;;;;;;;;;;;25.82;31.64;100197.50;4965884;28;19960;-77
2022/11/13 11:09:39;;;;;;;;;;;;;;;25.87;31.30;100198.78;4980978;28;20072;-76
2022/11/13 11:12:19;;;;;;;;;;;;;;;25.90;30.86;100199.28;4996343;28;20468;-76
2022/11/13 11:14:44;;;;;;;;;;;;;;;25.90;30.74;100193.94;4979830;28;20456;-76
2022/11/13 11:17:10;;;;;;;;;;;;;;;25.87;30.83;100185.41;4990551;28;19917;-75
2022/11/13 11:19:36;;;;;;;;;;;;;;;25.83;31.02;100180.44;4991236;28;19992;-81
2022/11/13 11:22:05;;;;;;;;;;;;;;;25.81;30.70;100171.75;4973558;28;19928;-74
2022/11/13 11:24:34;;;;;;;;;;;;;;;25.64;31.27;100175.59;4991197;28;19921;-77
2022/11/13 11:27:00;;;;;;;;;;;;;;;25.59;31.09;100165.44;4995321;28;19922;-75
2022/11/13 11:29:26;;;;;;;;;;;;;;;25.46;31.27;100166.06;4981481;28;19925;-76
2022/11/13 11:32:00;;;;;;;;;;;;;;;25.37;31.54;100164.44;4997047;28;20012;-76
2022/11/13 11:34:45;;;;;;;;;;;;;;;25.24;31.57;100165.00;4979378;28;20005;-78
2022/11/13 11:37:14;;;;;;;;;;;;;;;25.11;31.65;100156.75;4997805;28;19997;-77
2022/11/13 11:39:39;;;;;;;;;;;;;;;24.96;33.01;100150.50;4978764;28;19977;-77
2022/11/13 11:42:19;;;;;;;;;;;;;;;24.81;33.94;100153.09;4972481;28;19925;-77
2022/11/13 11:44:45;;;;;;;;;;;;;;;24.53;34.67;100145.53;4963297;28;20443;-73
2022/11/13 11:47:12;;;;;;;;;;;;;;;24.31;33.68;100142.59;4990100;28;19918;-75
2022/11/13 11:49:38;;;;;;;;;;;;;;;24.05;33.74;100147.34;4988511;28;19925;-75
2022/11/13 11:52:09;;;;;;;;;;;;;;;23.75;33.48;100147.03;4990425;28;19918;-77
2022/11/13 11:54:36;;;;;;;;;;;;;;;23.55;34.62;100142.06;4991343;28;20005;-73
2022/11/13 11:57:24;;;;;;;;;;;;;;;23.36;34.66;100134.41;4980449;28;19989;-72
2022/11/13 11:59:50;;;;;;;;;;;;;;;23.18;34.47;100127.38;4930417;29;20107;-70
2022/11/13 12:02:21;;;;;;;;;;;;;;;23.02;34.29;100130.81;4930485;29;20009;-73
2022/11/13 12:05:05;;;;;;;;;;;;;;;22.85;33.78;100129.97;4930760;29;19977;-74
2022/11/13 12:07:42;;;;;;;;;;;;;;;22.62;34.42;100123.59;4931475;29;19919;-73
2022/11/13 12:10:24;;;;;;;;;;;;;;;22.44;36.59;100124.53;4930081;29;19923;-74
2022/11/13 12:12:55;;;;;;;;;;;;;;;22.20;38.96;100125.19;4914660;29;19927;-74
2022/11/13 12:15:24;;;;;;;;;;;;;;;22.03;37.47;100116.31;4930475;29;19926;-74
2022/11/13 12:18:01;;;;;;;;;;;;;;;21.84;36.78;100112.88;4930285;29;19934;-75
2022/11/13 12:20:34;;;;;;;;;;;;;;;21.63;36.83;100120.34;4914596;29;19919;-73
2022/11/13 12:23:01;;;;;;;;;;;;;;;21.46;36.68;100112.25;4902258;29;20402;-74
2022/11/13 12:25:35;;;;;;;;;;;;;;;21.29;36.31;100113.09;4933816;29;19929;-75
2022/11/13 12:28:15;;;;;;;;;;;;;;;21.05;36.82;100111.88;4933992;29;20009;-74
2022/11/13 12:30:59;;;;;;;;;;;;;;;20.90;36.77;100113.38;4933849;29;20009;-73
2022/11/13 12:33:33;;;;;;;;;;;;;;;20.73;36.85;100115.88;4933237;29;19923;-74
2022/11/13 12:35:59;;;;;;;;;;;;;;;20.61;37.04;100112.56;4942473;28;20445;-74